sensor_id;sensor_type;location;lat;lon;timestamp;temperature;humidity
67557;DHT22;54387;53.526;49.300;2022-11-03T00:01:38;2.80;73.60
67557;DHT22;54387;53.526;49.300;2022-11-03T00:04:05;2.70;73.60
67557;DHT22;54387;53.526;49.300;2022-11-03T00:06:31;2.70;73.60
67557;DHT22;54387;53.526;49.300;2022-11-03T00:08:58;2.70;73.70
67557;DHT22;54387;53.526;49.300;2022-11-03T00:11:24;2.70;73.60
67557;DHT22;54387;53.526;49.300;2022-11-03T00:13:52;2.60;73.40
67557;DHT22;54387;53.526;49.300;2022-11-03T00:16:19;2.60;73.50
67557;DHT22;54387;53.526;49.300;2022-11-03T00:18:45;2.50;73.40
67557;DHT22;54387;53.526;49.300;2022-11-03T00:21:12;2.50;73.60
67557;DHT22;54387;53.526;49.300;2022-11-03T00:23:39;2.40;73.60
67557;DHT22;54387;53.526;49.300;2022-11-03T00:26:15;2.40;73.70
67557;DHT22;54387;53.526;49.300;2022-11-03T00:28:43;2.50;73.70
67557;DHT22;54387;53.526;49.300;2022-11-03T00:31:13;2.50;73.60
67557;DHT22;54387;53.526;49.300;2022-11-03T00:33:40;2.40;73.60
67557;DHT22;54387;53.526;49.300;2022-11-03T00:36:06;2.40;73.60
67557;DHT22;54387;53.526;49.300;2022-11-03T00:38:33;2.40;73.70
67557;DHT22;54387;53.526;49.300;2022-11-03T00:41:00;2.40;73.70
67557;DHT22;54387;53.526;49.300;2022-11-03T00:43:27;2.40;73.80
67557;DHT22;54387;53.526;49.300;2022-11-03T00:45:53;2.40;73.60
67557;DHT22;54387;53.526;49.300;2022-11-03T00:48:19;2.40;73.60
67557;DHT22;54387;53.526;49.300;2022-11-03T00:51:09;2.40;73.60
67557;DHT22;54387;53.526;49.300;2022-11-03T00:53:45;2.40;73.50
67557;DHT22;54387;53.526;49.300;2022-11-03T00:56:13;2.30;73.40
67557;DHT22;54387;53.526;49.300;2022-11-03T00:58:39;2.30;73.40
67557;DHT22;54387;53.526;49.300;2022-11-03T01:01:06;2.30;73.50
67557;DHT22;54387;53.526;49.300;2022-11-03T01:03:34;2.30;73.40
67557;DHT22;54387;53.526;49.300;2022-11-03T01:06:00;2.30;73.60
67557;DHT22;54387;53.526;49.300;2022-11-03T01:08:45;2.30;73.80
67557;DHT22;54387;53.526;49.300;2022-11-03T01:11:12;2.30;73.90
67557;DHT22;54387;53.526;49.300;2022-11-03T01:13:57;2.40;74.10
67557;DHT22;54387;53.526;49.300;2022-11-03T01:16:24;2.40;73.80
67557;DHT22;54387;53.526;49.300;2022-11-03T01:18:50;2.50;74.00
67557;DHT22;54387;53.526;49.300;2022-11-03T01:21:16;2.50;74.00
67557;DHT22;54387;53.526;49.300;2022-11-03T01:23:42;2.50;73.90
67557;DHT22;54387;53.526;49.300;2022-11-03T01:26:09;2.60;74.10
67557;DHT22;54387;53.526;49.300;2022-11-03T01:28:36;2.60;74.10
67557;DHT22;54387;53.526;49.300;2022-11-03T01:31:04;2.70;74.10
67557;DHT22;54387;53.526;49.300;2022-11-03T01:33:30;2.70;73.80
67557;DHT22;54387;53.526;49.300;2022-11-03T01:35:56;2.80;73.60
67557;DHT22;54387;53.526;49.300;2022-11-03T01:38:23;2.80;73.60
67557;DHT22;54387;53.526;49.300;2022-11-03T01:40:49;2.80;73.50
67557;DHT22;54387;53.526;49.300;2022-11-03T01:43:22;2.80;73.60
67557;DHT22;54387;53.526;49.300;2022-11-03T01:45:49;2.80;73.80
67557;DHT22;54387;53.526;49.300;2022-11-03T01:48:16;2.80;73.80
67557;DHT22;54387;53.526;49.300;2022-11-03T01:50:43;2.80;73.80
67557;DHT22;54387;53.526;49.300;2022-11-03T01:53:10;2.90;74.00
67557;DHT22;54387;53.526;49.300;2022-11-03T01:55:37;2.90;73.30
67557;DHT22;54387;53.526;49.300;2022-11-03T01:58:07;2.80;73.00
67557;DHT22;54387;53.526;49.300;2022-11-03T02:00:35;2.80;73.30
67557;DHT22;54387;53.526;49.300;2022-11-03T02:03:01;2.80;73.40
67557;DHT22;54387;53.526;49.300;2022-11-03T02:05:28;2.80;73.40
67557;DHT22;54387;53.526;49.300;2022-11-03T02:10:27;2.80;73.30
67557;DHT22;54387;53.526;49.300;2022-11-03T02:12:53;2.80;73.30
67557;DHT22;54387;53.526;49.300;2022-11-03T02:15:19;2.80;73.50
67557;DHT22;54387;53.526;49.300;2022-11-03T02:17:46;2.80;73.40
67557;DHT22;54387;53.526;49.300;2022-11-03T02:20:17;2.80;73.40
67557;DHT22;54387;53.526;49.300;2022-11-03T02:25:42;2.90;73.00
67557;DHT22;54387;53.526;49.300;2022-11-03T02:28:08;2.80;73.20
67557;DHT22;54387;53.526;49.300;2022-11-03T02:30:41;2.80;73.30
67557;DHT22;54387;53.526;49.300;2022-11-03T02:38:42;2.90;72.90
67557;DHT22;54387;53.526;49.300;2022-11-03T02:41:09;2.90;72.90
67557;DHT22;54387;53.526;49.300;2022-11-03T02:43:37;2.90;72.90
67557;DHT22;54387;53.526;49.300;2022-11-03T02:46:04;2.90;72.70
67557;DHT22;54387;53.526;49.300;2022-11-03T02:48:30;2.90;72.50
67557;DHT22;54387;53.526;49.300;2022-11-03T02:50:57;2.80;72.50
67557;DHT22;54387;53.526;49.300;2022-11-03T02:53:23;2.80;72.50
67557;DHT22;54387;53.526;49.300;2022-11-03T03:03:27;2.70;72.20
67557;DHT22;54387;53.526;49.300;2022-11-03T03:05:57;2.70;72.40
67557;DHT22;54387;53.526;49.300;2022-11-03T03:08:24;2.70;72.50
67557;DHT22;54387;53.526;49.300;2022-11-03T03:10:50;2.70;72.30
67557;DHT22;54387;53.526;49.300;2022-11-03T03:13:18;2.70;72.40
67557;DHT22;54387;53.526;49.300;2022-11-03T03:15:52;2.70;72.50
67557;DHT22;54387;53.526;49.300;2022-11-03T03:18:23;2.70;72.50
67557;DHT22;54387;53.526;49.300;2022-11-03T03:20:54;2.70;72.40
67557;DHT22;54387;53.526;49.300;2022-11-03T03:23:22;2.60;72.30
67557;DHT22;54387;53.526;49.300;2022-11-03T03:25:49;2.60;72.30
67557;DHT22;54387;53.526;49.300;2022-11-03T03:28:24;2.60;72.60
67557;DHT22;54387;53.526;49.300;2022-11-03T03:30:51;2.60;72.40
67557;DHT22;54387;53.526;49.300;2022-11-03T03:33:18;2.60;72.50
67557;DHT22;54387;53.526;49.300;2022-11-03T03:35:45;2.60;72.40
67557;DHT22;54387;53.526;49.300;2022-11-03T03:38:14;2.60;72.10
67557;DHT22;54387;53.526;49.300;2022-11-03T03:40:41;2.60;71.90
67557;DHT22;54387;53.526;49.300;2022-11-03T03:43:10;2.60;71.90
67557;DHT22;54387;53.526;49.300;2022-11-03T03:45:36;2.60;71.80
67557;DHT22;54387;53.526;49.300;2022-11-03T03:48:03;2.60;71.70
67557;DHT22;54387;53.526;49.300;2022-11-03T03:50:30;2.60;71.90
67557;DHT22;54387;53.526;49.300;2022-11-03T03:53:01;2.70;72.20
67557;DHT22;54387;53.526;49.300;2022-11-03T03:55:49;2.80;72.20
67557;DHT22;54387;53.526;49.300;2022-11-03T03:58:14;2.80;72.10
67557;DHT22;54387;53.526;49.300;2022-11-03T04:00:40;2.90;71.90
67557;DHT22;54387;53.526;49.300;2022-11-03T04:03:20;2.90;71.90
67557;DHT22;54387;53.526;49.300;2022-11-03T04:05:47;2.90;72.20
67557;DHT22;54387;53.526;49.300;2022-11-03T04:08:13;2.90;72.00
67557;DHT22;54387;53.526;49.300;2022-11-03T04:10:39;2.90;71.90
67557;DHT22;54387;53.526;49.300;2022-11-03T04:13:07;3.00;71.90
67557;DHT22;54387;53.526;49.300;2022-11-03T04:15:52;3.00;71.50
67557;DHT22;54387;53.526;49.300;2022-11-03T04:18:36;2.90;71.40
67557;DHT22;54387;53.526;49.300;2022-11-03T04:21:21;2.90;71.50
67557;DHT22;54387;53.526;49.300;2022-11-03T04:24:05;2.90;71.60
67557;DHT22;54387;53.526;49.300;2022-11-03T04:26:32;3.00;71.60
67557;DHT22;54387;53.526;49.300;2022-11-03T04:28:58;3.00;71.70
67557;DHT22;54387;53.526;49.300;2022-11-03T04:31:25;3.00;71.70
67557;DHT22;54387;53.526;49.300;2022-11-03T04:33:51;3.00;71.50
67557;DHT22;54387;53.526;49.300;2022-11-03T04:36:21;3.00;71.40
67557;DHT22;54387;53.526;49.300;2022-11-03T04:38:51;3.10;71.60
67557;DHT22;54387;53.526;49.300;2022-11-03T04:41:21;3.10;71.60
67557;DHT22;54387;53.526;49.300;2022-11-03T04:43:49;3.10;71.70
67557;DHT22;54387;53.526;49.300;2022-11-03T04:46:16;3.20;71.70
67557;DHT22;54387;53.526;49.300;2022-11-03T04:48:42;3.10;71.50
67557;DHT22;54387;53.526;49.300;2022-11-03T04:51:14;3.10;71.50
67557;DHT22;54387;53.526;49.300;2022-11-03T04:53:44;3.10;71.30
67557;DHT22;54387;53.526;49.300;2022-11-03T04:56:12;3.00;71.40
67557;DHT22;54387;53.526;49.300;2022-11-03T04:58:39;3.00;71.30
67557;DHT22;54387;53.526;49.300;2022-11-03T05:01:05;3.00;71.30
67557;DHT22;54387;53.526;49.300;2022-11-03T05:03:35;2.90;71.30
67557;DHT22;54387;53.526;49.300;2022-11-03T05:06:15;2.90;71.60
67557;DHT22;54387;53.526;49.300;2022-11-03T05:08:42;2.80;71.50
67557;DHT22;54387;53.526;49.300;2022-11-03T05:11:16;2.80;71.70
67557;DHT22;54387;53.526;49.300;2022-11-03T05:13:44;2.80;71.90
67557;DHT22;54387;53.526;49.300;2022-11-03T05:16:10;2.80;71.80
67557;DHT22;54387;53.526;49.300;2022-11-03T05:18:37;2.80;72.00
67557;DHT22;54387;53.526;49.300;2022-11-03T05:21:08;2.80;72.00
67557;DHT22;54387;53.526;49.300;2022-11-03T05:23:39;2.80;72.20
67557;DHT22;54387;53.526;49.300;2022-11-03T05:26:06;2.90;72.20
67557;DHT22;54387;53.526;49.300;2022-11-03T05:28:41;2.90;72.20
67557;DHT22;54387;53.526;49.300;2022-11-03T05:31:43;2.90;72.30
67557;DHT22;54387;53.526;49.300;2022-11-03T05:34:05;3.00;72.50
67557;DHT22;54387;53.526;49.300;2022-11-03T05:36:37;3.10;72.50
67557;DHT22;54387;53.526;49.300;2022-11-03T05:41:48;3.10;71.90
67557;DHT22;54387;53.526;49.300;2022-11-03T05:46:59;3.00;71.90
67557;DHT22;54387;53.526;49.300;2022-11-03T05:49:26;3.00;71.90
67557;DHT22;54387;53.526;49.300;2022-11-03T05:51:52;2.90;72.00
67557;DHT22;54387;53.526;49.300;2022-11-03T05:54:19;2.90;72.10
67557;DHT22;54387;53.526;49.300;2022-11-03T05:56:47;2.80;72.30
67557;DHT22;54387;53.526;49.300;2022-11-03T05:59:13;2.90;73.00
67557;DHT22;54387;53.526;49.300;2022-11-03T06:01:40;2.90;72.40
67557;DHT22;54387;53.526;49.300;2022-11-03T06:09:20;2.80;72.20
67557;DHT22;54387;53.526;49.300;2022-11-03T06:11:47;2.70;72.40
67557;DHT22;54387;53.526;49.300;2022-11-03T06:14:16;2.70;72.50
67557;DHT22;54387;53.526;49.300;2022-11-03T06:16:45;2.70;72.40
67557;DHT22;54387;53.526;49.300;2022-11-03T06:19:22;2.70;72.50
67557;DHT22;54387;53.526;49.300;2022-11-03T06:21:49;2.70;72.50
67557;DHT22;54387;53.526;49.300;2022-11-03T06:24:16;2.70;72.60
67557;DHT22;54387;53.526;49.300;2022-11-03T06:26:44;2.70;72.80
67557;DHT22;54387;53.526;49.300;2022-11-03T06:29:13;2.70;72.80
67557;DHT22;54387;53.526;49.300;2022-11-03T06:31:40;2.80;72.80
67557;DHT22;54387;53.526;49.300;2022-11-03T06:34:12;2.80;72.80
67557;DHT22;54387;53.526;49.300;2022-11-03T06:36:43;2.80;72.80
67557;DHT22;54387;53.526;49.300;2022-11-03T06:39:13;2.90;72.90
67557;DHT22;54387;53.526;49.300;2022-11-03T06:41:42;2.90;72.90
67557;DHT22;54387;53.526;49.300;2022-11-03T06:44:26;2.90;72.90
67557;DHT22;54387;53.526;49.300;2022-11-03T06:46:55;2.90;72.50
67557;DHT22;54387;53.526;49.300;2022-11-03T06:54:49;2.90;72.80
67557;DHT22;54387;53.526;49.300;2022-11-03T06:57:18;2.90;72.70
67557;DHT22;54387;53.526;49.300;2022-11-03T06:59:44;2.90;72.70
67557;DHT22;54387;53.526;49.300;2022-11-03T07:02:22;3.00;72.90
67557;DHT22;54387;53.526;49.300;2022-11-03T07:04:50;3.00;72.90
67557;DHT22;54387;53.526;49.300;2022-11-03T07:07:17;3.10;73.10
67557;DHT22;54387;53.526;49.300;2022-11-03T07:09:43;3.20;73.10
67557;DHT22;54387;53.526;49.300;2022-11-03T07:12:12;3.20;73.20
67557;DHT22;54387;53.526;49.300;2022-11-03T07:14:41;3.30;73.10
67557;DHT22;54387;53.526;49.300;2022-11-03T07:17:12;3.40;73.10
67557;DHT22;54387;53.526;49.300;2022-11-03T07:19:40;3.40;73.40
67557;DHT22;54387;53.526;49.300;2022-11-03T07:24:40;3.60;73.40
67557;DHT22;54387;53.526;49.300;2022-11-03T07:27:25;3.70;73.20
67557;DHT22;54387;53.526;49.300;2022-11-03T07:29:53;3.80;73.20
67557;DHT22;54387;53.526;49.300;2022-11-03T07:32:23;3.70;72.80
67557;DHT22;54387;53.526;49.300;2022-11-03T07:34:50;3.80;73.20
67557;DHT22;54387;53.526;49.300;2022-11-03T07:37:21;3.90;73.10
67557;DHT22;54387;53.526;49.300;2022-11-03T07:39:48;3.90;73.40
67557;DHT22;54387;53.526;49.300;2022-11-03T07:42:19;3.90;73.00
67557;DHT22;54387;53.526;49.300;2022-11-03T07:44:46;4.00;73.30
67557;DHT22;54387;53.526;49.300;2022-11-03T07:47:13;4.00;73.40
67557;DHT22;54387;53.526;49.300;2022-11-03T07:49:40;4.10;73.40
67557;DHT22;54387;53.526;49.300;2022-11-03T07:52:11;4.20;73.10
67557;DHT22;54387;53.526;49.300;2022-11-03T07:54:40;4.20;73.60
67557;DHT22;54387;53.526;49.300;2022-11-03T07:57:19;4.20;73.20
67557;DHT22;54387;53.526;49.300;2022-11-03T07:59:49;4.40;73.20
67557;DHT22;54387;53.526;49.300;2022-11-03T08:02:35;4.40;73.20
67557;DHT22;54387;53.526;49.300;2022-11-03T08:05:02;4.40;73.20
67557;DHT22;54387;53.526;49.300;2022-11-03T08:07:29;4.50;73.20
67557;DHT22;54387;53.526;49.300;2022-11-03T08:09:56;4.50;72.90
67557;DHT22;54387;53.526;49.300;2022-11-03T08:12:22;4.60;73.20
67557;DHT22;54387;53.526;49.300;2022-11-03T08:14:49;4.60;73.00
67557;DHT22;54387;53.526;49.300;2022-11-03T08:17:15;4.60;72.30
67557;DHT22;54387;53.526;49.300;2022-11-03T08:19:41;4.50;72.20
67557;DHT22;54387;53.526;49.300;2022-11-03T08:22:07;4.60;72.50
67557;DHT22;54387;53.526;49.300;2022-11-03T08:24:34;4.60;72.10
67557;DHT22;54387;53.526;49.300;2022-11-03T08:27:00;4.60;72.40
67557;DHT22;54387;53.526;49.300;2022-11-03T08:29:28;4.70;72.50
67557;DHT22;54387;53.526;49.300;2022-11-03T08:31:54;4.80;72.40
67557;DHT22;54387;53.526;49.300;2022-11-03T08:34:20;4.80;72.20
67557;DHT22;54387;53.526;49.300;2022-11-03T08:36:46;4.70;71.90
67557;DHT22;54387;53.526;49.300;2022-11-03T08:39:12;4.70;72.10
67557;DHT22;54387;53.526;49.300;2022-11-03T08:41:39;4.80;72.30
67557;DHT22;54387;53.526;49.300;2022-11-03T08:44:05;4.80;72.00
67557;DHT22;54387;53.526;49.300;2022-11-03T08:46:31;4.90;71.80
67557;DHT22;54387;53.526;49.300;2022-11-03T08:48:57;4.90;71.90
67557;DHT22;54387;53.526;49.300;2022-11-03T08:51:24;4.90;72.00
67557;DHT22;54387;53.526;49.300;2022-11-03T08:53:50;5.00;72.10
67557;DHT22;54387;53.526;49.300;2022-11-03T08:56:19;5.10;71.60
67557;DHT22;54387;53.526;49.300;2022-11-03T08:58:45;5.20;71.70
67557;DHT22;54387;53.526;49.300;2022-11-03T09:01:12;5.20;71.50
67557;DHT22;54387;53.526;49.300;2022-11-03T09:03:38;5.30;71.50
67557;DHT22;54387;53.526;49.300;2022-11-03T09:06:04;5.40;71.40
67557;DHT22;54387;53.526;49.300;2022-11-03T09:08:31;5.50;71.10
67557;DHT22;54387;53.526;49.300;2022-11-03T09:10:57;5.50;71.00
67557;DHT22;54387;53.526;49.300;2022-11-03T09:13:23;5.50;71.20
67557;DHT22;54387;53.526;49.300;2022-11-03T09:15:49;5.50;71.30
67557;DHT22;54387;53.526;49.300;2022-11-03T09:18:15;5.50;71.20
67557;DHT22;54387;53.526;49.300;2022-11-03T09:20:41;5.50;71.60
67557;DHT22;54387;53.526;49.300;2022-11-03T09:23:07;5.70;72.10
67557;DHT22;54387;53.526;49.300;2022-11-03T09:25:33;5.80;72.10
67557;DHT22;54387;53.526;49.300;2022-11-03T09:27:59;5.90;70.90
67557;DHT22;54387;53.526;49.300;2022-11-03T09:30:26;5.80;70.60
67557;DHT22;54387;53.526;49.300;2022-11-03T09:32:52;5.80;70.60
67557;DHT22;54387;53.526;49.300;2022-11-03T09:35:18;5.80;69.90
67557;DHT22;54387;53.526;49.300;2022-11-03T09:37:45;5.80;68.70
67557;DHT22;54387;53.526;49.300;2022-11-03T09:40:12;5.60;68.40
67557;DHT22;54387;53.526;49.300;2022-11-03T09:42:39;5.60;68.70
67557;DHT22;54387;53.526;49.300;2022-11-03T09:45:06;5.70;68.90
67557;DHT22;54387;53.526;49.300;2022-11-03T09:47:34;5.70;68.40
67557;DHT22;54387;53.526;49.300;2022-11-03T09:50:01;5.70;67.60
67557;DHT22;54387;53.526;49.300;2022-11-03T09:52:27;5.40;66.70
67557;DHT22;54387;53.526;49.300;2022-11-03T09:54:54;5.30;67.30
67557;DHT22;54387;53.526;49.300;2022-11-03T09:57:20;5.30;68.00
67557;DHT22;54387;53.526;49.300;2022-11-03T09:59:47;5.30;67.90
67557;DHT22;54387;53.526;49.300;2022-11-03T10:02:16;5.30;68.10
67557;DHT22;54387;53.526;49.300;2022-11-03T10:04:45;5.40;67.00
67557;DHT22;54387;53.526;49.300;2022-11-03T10:07:11;5.30;65.80
67557;DHT22;54387;53.526;49.300;2022-11-03T10:09:39;5.10;66.20
67557;DHT22;54387;53.526;49.300;2022-11-03T10:12:07;5.10;66.40
67557;DHT22;54387;53.526;49.300;2022-11-03T10:14:34;5.10;66.70
67557;DHT22;54387;53.526;49.300;2022-11-03T10:17:00;5.10;66.60
67557;DHT22;54387;53.526;49.300;2022-11-03T10:19:26;5.10;66.70
67557;DHT22;54387;53.526;49.300;2022-11-03T10:21:52;5.10;67.10
67557;DHT22;54387;53.526;49.300;2022-11-03T10:24:19;5.30;67.10
67557;DHT22;54387;53.526;49.300;2022-11-03T10:26:49;5.40;66.90
67557;DHT22;54387;53.526;49.300;2022-11-03T10:29:16;5.40;66.60
67557;DHT22;54387;53.526;49.300;2022-11-03T10:31:44;5.30;65.70
67557;DHT22;54387;53.526;49.300;2022-11-03T10:36:49;5.10;65.10
67557;DHT22;54387;53.526;49.300;2022-11-03T10:39:22;5.10;65.60
67557;DHT22;54387;53.526;49.300;2022-11-03T10:41:56;5.20;65.90
67557;DHT22;54387;53.526;49.300;2022-11-03T10:44:24;5.30;66.00
67557;DHT22;54387;53.526;49.300;2022-11-03T10:47:19;5.30;65.40
67557;DHT22;54387;53.526;49.300;2022-11-03T10:49:40;5.30;64.90
67557;DHT22;54387;53.526;49.300;2022-11-03T10:54:45;5.30;65.10
67557;DHT22;54387;53.526;49.300;2022-11-03T10:57:11;5.40;65.00
67557;DHT22;54387;53.526;49.300;2022-11-03T10:59:38;5.40;65.00
67557;DHT22;54387;53.526;49.300;2022-11-03T11:02:11;5.50;64.90
67557;DHT22;54387;53.526;49.300;2022-11-03T11:04:38;5.50;65.10
67557;DHT22;54387;53.526;49.300;2022-11-03T11:07:29;5.50;65.20
67557;DHT22;54387;53.526;49.300;2022-11-03T11:09:52;5.40;65.00
67557;DHT22;54387;53.526;49.300;2022-11-03T11:12:23;5.30;65.20
67557;DHT22;54387;53.526;49.300;2022-11-03T11:14:54;5.30;64.90
67557;DHT22;54387;53.526;49.300;2022-11-03T11:21:47;5.20;65.30
67557;DHT22;54387;53.526;49.300;2022-11-03T11:28:29;5.20;65.30
67557;DHT22;54387;53.526;49.300;2022-11-03T11:30:56;5.30;65.50
67557;DHT22;54387;53.526;49.300;2022-11-03T11:33:28;5.30;65.50
67557;DHT22;54387;53.526;49.300;2022-11-03T11:41:20;5.20;65.80
67557;DHT22;54387;53.526;49.300;2022-11-03T11:43:46;5.20;66.00
67557;DHT22;54387;53.526;49.300;2022-11-03T11:48:49;5.30;66.10
67557;DHT22;54387;53.526;49.300;2022-11-03T11:51:15;5.30;66.00
67557;DHT22;54387;53.526;49.300;2022-11-03T11:53:41;5.20;66.00
67557;DHT22;54387;53.526;49.300;2022-11-03T11:56:09;5.20;66.30
67557;DHT22;54387;53.526;49.300;2022-11-03T11:58:47;5.20;65.90
67557;DHT22;54387;53.526;49.300;2022-11-03T12:03:43;5.00;65.70
67557;DHT22;54387;53.526;49.300;2022-11-03T12:06:13;4.90;65.80
67557;DHT22;54387;53.526;49.300;2022-11-03T12:08:39;4.90;65.90
67557;DHT22;54387;53.526;49.300;2022-11-03T12:11:06;4.80;66.10
67557;DHT22;54387;53.526;49.300;2022-11-03T12:13:49;4.80;66.10
67557;DHT22;54387;53.526;49.300;2022-11-03T12:16:29;4.80;66.30
67557;DHT22;54387;53.526;49.300;2022-11-03T12:18:56;4.90;66.40
67557;DHT22;54387;53.526;49.300;2022-11-03T12:26:52;4.90;66.40
67557;DHT22;54387;53.526;49.300;2022-11-03T12:29:18;4.80;66.10
67557;DHT22;54387;53.526;49.300;2022-11-03T12:31:45;4.70;66.10
67557;DHT22;54387;53.526;49.300;2022-11-03T12:34:11;4.70;66.30
67557;DHT22;54387;53.526;49.300;2022-11-03T12:36:37;4.70;66.30
67557;DHT22;54387;53.526;49.300;2022-11-03T12:39:03;4.70;66.50
67557;DHT22;54387;53.526;49.300;2022-11-03T12:41:29;4.70;66.50
67557;DHT22;54387;53.526;49.300;2022-11-03T12:43:58;4.70;66.40
67557;DHT22;54387;53.526;49.300;2022-11-03T12:46:25;4.70;66.70
67557;DHT22;54387;53.526;49.300;2022-11-03T12:48:51;4.70;66.60
67557;DHT22;54387;53.526;49.300;2022-11-03T12:51:21;4.60;66.70
67557;DHT22;54387;53.526;49.300;2022-11-03T12:53:48;4.70;66.80
67557;DHT22;54387;53.526;49.300;2022-11-03T12:56:14;4.60;66.60
67557;DHT22;54387;53.526;49.300;2022-11-03T12:58:41;4.60;66.50
67557;DHT22;54387;53.526;49.300;2022-11-03T13:01:07;4.50;66.50
67557;DHT22;54387;53.526;49.300;2022-11-03T13:03:40;4.50;66.60
67557;DHT22;54387;53.526;49.300;2022-11-03T13:06:08;4.40;66.70
67557;DHT22;54387;53.526;49.300;2022-11-03T13:08:36;4.30;66.70
67557;DHT22;54387;53.526;49.300;2022-11-03T13:11:02;4.30;66.90
67557;DHT22;54387;53.526;49.300;2022-11-03T13:13:29;4.30;67.00
67557;DHT22;54387;53.526;49.300;2022-11-03T13:15:56;4.40;67.20
67557;DHT22;54387;53.526;49.300;2022-11-03T13:18:22;4.30;67.00
67557;DHT22;54387;53.526;49.300;2022-11-03T13:20:48;4.30;67.10
67557;DHT22;54387;53.526;49.300;2022-11-03T13:23:14;4.30;67.10
67557;DHT22;54387;53.526;49.300;2022-11-03T13:25:46;4.30;67.10
67557;DHT22;54387;53.526;49.300;2022-11-03T13:28:12;4.30;67.10
67557;DHT22;54387;53.526;49.300;2022-11-03T13:30:38;4.20;67.10
67557;DHT22;54387;53.526;49.300;2022-11-03T13:33:06;4.20;67.30
67557;DHT22;54387;53.526;49.300;2022-11-03T13:35:37;4.20;67.40
67557;DHT22;54387;53.526;49.300;2022-11-03T13:38:03;4.30;67.50
67557;DHT22;54387;53.526;49.300;2022-11-03T13:40:29;4.30;67.60
67557;DHT22;54387;53.526;49.300;2022-11-03T13:42:55;4.30;67.60
67557;DHT22;54387;53.526;49.300;2022-11-03T13:45:21;4.30;67.60
67557;DHT22;54387;53.526;49.300;2022-11-03T13:47:48;4.20;67.80
67557;DHT22;54387;53.526;49.300;2022-11-03T13:50:14;4.30;67.90
67557;DHT22;54387;53.526;49.300;2022-11-03T13:52:40;4.30;68.00
67557;DHT22;54387;53.526;49.300;2022-11-03T13:55:07;4.30;68.00
67557;DHT22;54387;53.526;49.300;2022-11-03T13:57:34;4.30;68.00
67557;DHT22;54387;53.526;49.300;2022-11-03T14:00:00;4.30;68.00
67557;DHT22;54387;53.526;49.300;2022-11-03T14:02:26;4.30;68.00
67557;DHT22;54387;53.526;49.300;2022-11-03T14:04:54;4.30;68.10
67557;DHT22;54387;53.526;49.300;2022-11-03T14:07:20;4.30;68.30
67557;DHT22;54387;53.526;49.300;2022-11-03T14:09:46;4.30;68.30
67557;DHT22;54387;53.526;49.300;2022-11-03T14:12:12;4.30;68.40
67557;DHT22;54387;53.526;49.300;2022-11-03T14:15:00;4.30;68.50
67557;DHT22;54387;53.526;49.300;2022-11-03T14:17:27;4.40;68.50
67557;DHT22;54387;53.526;49.300;2022-11-03T14:19:54;4.40;68.40
67557;DHT22;54387;53.526;49.300;2022-11-03T14:22:20;4.40;68.50
67557;DHT22;54387;53.526;49.300;2022-11-03T14:24:46;4.30;68.50
67557;DHT22;54387;53.526;49.300;2022-11-03T14:27:12;4.30;68.50
67557;DHT22;54387;53.526;49.300;2022-11-03T14:29:40;4.20;68.40
67557;DHT22;54387;53.526;49.300;2022-11-03T14:32:08;4.20;68.60
67557;DHT22;54387;53.526;49.300;2022-11-03T14:34:35;4.20;68.70
67557;DHT22;54387;53.526;49.300;2022-11-03T14:37:06;4.20;68.80
67557;DHT22;54387;53.526;49.300;2022-11-03T14:39:33;4.20;68.90
67557;DHT22;54387;53.526;49.300;2022-11-03T14:42:02;4.30;68.80
67557;DHT22;54387;53.526;49.300;2022-11-03T14:44:33;4.30;68.90
67557;DHT22;54387;53.526;49.300;2022-11-03T14:46:59;4.40;69.00
67557;DHT22;54387;53.526;49.300;2022-11-03T14:49:29;4.40;69.00
67557;DHT22;54387;53.526;49.300;2022-11-03T14:51:55;4.50;69.00
67557;DHT22;54387;53.526;49.300;2022-11-03T14:54:22;4.50;69.10
67557;DHT22;54387;53.526;49.300;2022-11-03T14:56:48;4.50;68.80
67557;DHT22;54387;53.526;49.300;2022-11-03T14:59:14;4.50;68.90
67557;DHT22;54387;53.526;49.300;2022-11-03T15:01:40;4.40;68.80
67557;DHT22;54387;53.526;49.300;2022-11-03T15:04:06;4.40;68.90
67557;DHT22;54387;53.526;49.300;2022-11-03T15:06:33;4.40;68.90
67557;DHT22;54387;53.526;49.300;2022-11-03T15:08:59;4.40;69.00
67557;DHT22;54387;53.526;49.300;2022-11-03T15:11:25;4.40;69.00
67557;DHT22;54387;53.526;49.300;2022-11-03T15:13:51;4.50;69.10
67557;DHT22;54387;53.526;49.300;2022-11-03T15:16:20;4.50;69.10
67557;DHT22;54387;53.526;49.300;2022-11-03T15:18:46;4.50;69.00
67557;DHT22;54387;53.526;49.300;2022-11-03T15:21:12;4.50;69.00
67557;DHT22;54387;53.526;49.300;2022-11-03T15:23:38;4.50;68.90
67557;DHT22;54387;53.526;49.300;2022-11-03T15:26:04;4.50;68.80
67557;DHT22;54387;53.526;49.300;2022-11-03T15:28:33;4.40;68.70
67557;DHT22;54387;53.526;49.300;2022-11-03T15:30:59;4.40;68.90
67557;DHT22;54387;53.526;49.300;2022-11-03T15:33:26;4.40;69.00
67557;DHT22;54387;53.526;49.300;2022-11-03T15:35:52;4.40;69.00
67557;DHT22;54387;53.526;49.300;2022-11-03T15:38:18;4.40;68.80
67557;DHT22;54387;53.526;49.300;2022-11-03T15:40:45;4.30;68.70
67557;DHT22;54387;53.526;49.300;2022-11-03T15:43:11;4.30;68.80
67557;DHT22;54387;53.526;49.300;2022-11-03T15:45:37;4.30;68.90
67557;DHT22;54387;53.526;49.300;2022-11-03T15:48:05;4.20;68.90
67557;DHT22;54387;53.526;49.300;2022-11-03T15:50:31;4.20;68.70
67557;DHT22;54387;53.526;49.300;2022-11-03T15:52:57;4.20;68.90
67557;DHT22;54387;53.526;49.300;2022-11-03T15:55:23;4.20;68.90
67557;DHT22;54387;53.526;49.300;2022-11-03T15:57:50;4.20;68.90
67557;DHT22;54387;53.526;49.300;2022-11-03T16:00:16;4.10;69.00
67557;DHT22;54387;53.526;49.300;2022-11-03T16:02:45;4.20;69.20
67557;DHT22;54387;53.526;49.300;2022-11-03T16:05:12;4.20;69.20
67557;DHT22;54387;53.526;49.300;2022-11-03T16:07:38;4.30;69.20
67557;DHT22;54387;53.526;49.300;2022-11-03T16:10:05;4.30;69.00
67557;DHT22;54387;53.526;49.300;2022-11-03T16:12:31;4.40;69.10
67557;DHT22;54387;53.526;49.300;2022-11-03T16:14:57;4.40;69.00
67557;DHT22;54387;53.526;49.300;2022-11-03T16:17:23;4.30;69.00
67557;DHT22;54387;53.526;49.300;2022-11-03T16:19:49;4.30;69.10
67557;DHT22;54387;53.526;49.300;2022-11-03T16:22:15;4.30;69.00
67557;DHT22;54387;53.526;49.300;2022-11-03T16:24:41;4.40;69.00
67557;DHT22;54387;53.526;49.300;2022-11-03T16:27:09;4.30;68.90
67557;DHT22;54387;53.526;49.300;2022-11-03T16:29:35;4.30;68.90
67557;DHT22;54387;53.526;49.300;2022-11-03T16:32:01;4.30;68.80
67557;DHT22;54387;53.526;49.300;2022-11-03T16:34:27;4.30;68.80
67557;DHT22;54387;53.526;49.300;2022-11-03T16:36:53;4.20;68.80
67557;DHT22;54387;53.526;49.300;2022-11-03T16:39:19;4.20;68.80
67557;DHT22;54387;53.526;49.300;2022-11-03T16:41:45;4.10;68.90
67557;DHT22;54387;53.526;49.300;2022-11-03T16:44:11;4.10;69.00